sensor_id;sensor_type;location;lat;lon;timestamp;temperature;humidity
25438;DHT22;13364;49.084;9.978;2022-09-03T00:08:13;14.30;99.90
25438;DHT22;13364;49.084;9.978;2022-09-03T00:10:55;14.30;99.90
25438;DHT22;13364;49.084;9.978;2022-09-03T00:13:34;14.20;99.90
25438;DHT22;13364;49.084;9.978;2022-09-03T00:16:08;14.20;99.90
25438;DHT22;13364;49.084;9.978;2022-09-03T00:18:52;14.20;99.90
25438;DHT22;13364;49.084;9.978;2022-09-03T00:21:48;14.10;99.90
25438;DHT22;13364;49.084;9.978;2022-09-03T00:24:20;14.10;99.90
25438;DHT22;13364;49.084;9.978;2022-09-03T00:26:56;14.00;99.90
25438;DHT22;13364;49.084;9.978;2022-09-03T00:36:01;14.00;99.90
25438;DHT22;13364;49.084;9.978;2022-09-03T00:38:19;14.00;99.90
25438;DHT22;13364;49.084;9.978;2022-09-03T00:46:44;13.90;99.90
25438;DHT22;13364;49.084;9.978;2022-09-03T00:55:07;13.80;99.90
25438;DHT22;13364;49.084;9.978;2022-09-03T01:00:26;13.80;99.90
25438;DHT22;13364;49.084;9.978;2022-09-03T01:06:00;13.70;99.90
25438;DHT22;13364;49.084;9.978;2022-09-03T01:15:12;13.70;99.90
25438;DHT22;13364;49.084;9.978;2022-09-03T01:29:19;13.50;99.90
25438;DHT22;13364;49.084;9.978;2022-09-03T01:32:02;13.50;99.90
25438;DHT22;13364;49.084;9.978;2022-09-03T01:40:29;13.50;99.90
25438;DHT22;13364;49.084;9.978;2022-09-03T01:45:50;13.50;99.90
25438;DHT22;13364;49.084;9.978;2022-09-03T01:48:39;13.40;99.90
25438;DHT22;13364;49.084;9.978;2022-09-03T01:51:19;13.40;99.90
25438;DHT22;13364;49.084;9.978;2022-09-03T01:57:16;13.40;99.90
25438;DHT22;13364;49.084;9.978;2022-09-03T02:00:17;13.50;99.90
25438;DHT22;13364;49.084;9.978;2022-09-03T02:02:48;13.50;99.90
25438;DHT22;13364;49.084;9.978;2022-09-03T02:05:20;13.50;99.90
25438;DHT22;13364;49.084;9.978;2022-09-03T02:07:57;13.50;99.90
25438;DHT22;13364;49.084;9.978;2022-09-03T02:10:46;13.50;99.90
25438;DHT22;13364;49.084;9.978;2022-09-03T02:15:44;13.50;99.90
25438;DHT22;13364;49.084;9.978;2022-09-03T02:18:25;13.50;99.90
25438;DHT22;13364;49.084;9.978;2022-09-03T02:20:56;13.50;99.90
25438;DHT22;13364;49.084;9.978;2022-09-03T02:23:25;13.50;99.90
25438;DHT22;13364;49.084;9.978;2022-09-03T02:26:00;13.50;99.90
25438;DHT22;13364;49.084;9.978;2022-09-03T02:28:29;13.50;99.90
25438;DHT22;13364;49.084;9.978;2022-09-03T02:30:57;13.50;99.90
25438;DHT22;13364;49.084;9.978;2022-09-03T02:33:25;13.40;99.90
25438;DHT22;13364;49.084;9.978;2022-09-03T02:35:53;13.40;99.90
25438;DHT22;13364;49.084;9.978;2022-09-03T02:38:24;13.40;99.90
25438;DHT22;13364;49.084;9.978;2022-09-03T02:40:52;13.40;99.90
25438;DHT22;13364;49.084;9.978;2022-09-03T02:46:21;13.40;99.90
25438;DHT22;13364;49.084;9.978;2022-09-03T02:48:49;13.40;99.90
25438;DHT22;13364;49.084;9.978;2022-09-03T02:51:16;13.40;99.90
25438;DHT22;13364;49.084;9.978;2022-09-03T02:53:43;13.40;99.90
25438;DHT22;13364;49.084;9.978;2022-09-03T02:56:10;13.40;99.90
25438;DHT22;13364;49.084;9.978;2022-09-03T02:58:38;13.40;99.90
25438;DHT22;13364;49.084;9.978;2022-09-03T03:01:05;13.40;99.90
25438;DHT22;13364;49.084;9.978;2022-09-03T03:03:32;13.40;99.90
25438;DHT22;13364;49.084;9.978;2022-09-03T03:06:04;13.40;99.90
25438;DHT22;13364;49.084;9.978;2022-09-03T03:08:32;13.40;99.90
25438;DHT22;13364;49.084;9.978;2022-09-03T03:11:01;13.50;99.90
25438;DHT22;13364;49.084;9.978;2022-09-03T03:13:29;13.50;99.90
25438;DHT22;13364;49.084;9.978;2022-09-03T03:16:01;13.50;99.90
25438;DHT22;13364;49.084;9.978;2022-09-03T03:18:32;13.50;99.90
25438;DHT22;13364;49.084;9.978;2022-09-03T03:21:08;13.50;99.90
25438;DHT22;13364;49.084;9.978;2022-09-03T03:23:36;13.50;99.90
25438;DHT22;13364;49.084;9.978;2022-09-03T03:26:06;13.50;99.90
25438;DHT22;13364;49.084;9.978;2022-09-03T03:28:34;13.50;99.90
25438;DHT22;13364;49.084;9.978;2022-09-03T03:33:33;13.60;99.90
25438;DHT22;13364;49.084;9.978;2022-09-03T03:36:05;13.60;99.90
25438;DHT22;13364;49.084;9.978;2022-09-03T03:38:33;13.60;99.90
25438;DHT22;13364;49.084;9.978;2022-09-03T03:41:06;13.60;99.90
25438;DHT22;13364;49.084;9.978;2022-09-03T03:43:33;13.60;99.90
25438;DHT22;13364;49.084;9.978;2022-09-03T03:46:00;13.60;99.90
25438;DHT22;13364;49.084;9.978;2022-09-03T03:48:28;13.60;99.90
25438;DHT22;13364;49.084;9.978;2022-09-03T03:50:58;13.60;99.90
25438;DHT22;13364;49.084;9.978;2022-09-03T03:53:26;13.60;99.90
25438;DHT22;13364;49.084;9.978;2022-09-03T03:55:58;13.60;99.90
25438;DHT22;13364;49.084;9.978;2022-09-03T03:58:28;13.60;99.90
25438;DHT22;13364;49.084;9.978;2022-09-03T04:01:02;13.60;99.90
25438;DHT22;13364;49.084;9.978;2022-09-03T04:03:29;13.60;99.90
25438;DHT22;13364;49.084;9.978;2022-09-03T04:05:57;13.60;99.90
25438;DHT22;13364;49.084;9.978;2022-09-03T04:08:26;13.70;99.90
25438;DHT22;13364;49.084;9.978;2022-09-03T04:10:58;13.70;99.90
25438;DHT22;13364;49.084;9.978;2022-09-03T04:13:37;13.70;99.90
25438;DHT22;13364;49.084;9.978;2022-09-03T04:16:12;13.70;99.90
25438;DHT22;13364;49.084;9.978;2022-09-03T04:18:41;13.70;99.90
25438;DHT22;13364;49.084;9.978;2022-09-03T04:21:17;13.70;99.90
25438;DHT22;13364;49.084;9.978;2022-09-03T04:23:46;13.70;99.90
25438;DHT22;13364;49.084;9.978;2022-09-03T04:26:17;13.70;99.90
25438;DHT22;13364;49.084;9.978;2022-09-03T04:28:44;13.80;99.90
25438;DHT22;13364;49.084;9.978;2022-09-03T04:31:13;13.80;99.90
25438;DHT22;13364;49.084;9.978;2022-09-03T04:33:41;13.80;99.90
25438;DHT22;13364;49.084;9.978;2022-09-03T04:38:41;13.80;99.90
25438;DHT22;13364;49.084;9.978;2022-09-03T04:41:11;13.80;99.90
25438;DHT22;13364;49.084;9.978;2022-09-03T04:43:39;13.80;99.90
25438;DHT22;13364;49.084;9.978;2022-09-03T04:46:11;13.80;99.90
25438;DHT22;13364;49.084;9.978;2022-09-03T04:48:47;13.80;99.90
25438;DHT22;13364;49.084;9.978;2022-09-03T04:51:16;13.80;99.90
25438;DHT22;13364;49.084;9.978;2022-09-03T04:53:46;13.80;99.90
25438;DHT22;13364;49.084;9.978;2022-09-03T04:56:17;13.80;99.90
25438;DHT22;13364;49.084;9.978;2022-09-03T04:58:45;13.80;99.90
25438;DHT22;13364;49.084;9.978;2022-09-03T05:01:19;13.90;99.90
25438;DHT22;13364;49.084;9.978;2022-09-03T05:03:47;13.90;99.90
25438;DHT22;13364;49.084;9.978;2022-09-03T05:06:14;13.90;99.90
25438;DHT22;13364;49.084;9.978;2022-09-03T05:08:50;13.90;99.90
25438;DHT22;13364;49.084;9.978;2022-09-03T05:11:17;13.90;99.90
25438;DHT22;13364;49.084;9.978;2022-09-03T05:13:49;13.90;99.90
25438;DHT22;13364;49.084;9.978;2022-09-03T05:16:17;14.00;99.90
25438;DHT22;13364;49.084;9.978;2022-09-03T05:18:45;14.00;99.90
25438;DHT22;13364;49.084;9.978;2022-09-03T05:21:15;14.00;99.90
25438;DHT22;13364;49.084;9.978;2022-09-03T05:23:44;14.00;99.90
25438;DHT22;13364;49.084;9.978;2022-09-03T05:26:26;14.10;99.90
25438;DHT22;13364;49.084;9.978;2022-09-03T05:28:56;14.10;99.90
25438;DHT22;13364;49.084;9.978;2022-09-03T05:31:23;14.10;99.90
25438;DHT22;13364;49.084;9.978;2022-09-03T05:37:20;14.20;99.90
25438;DHT22;13364;49.084;9.978;2022-09-03T05:39:49;14.20;99.90
25438;DHT22;13364;49.084;9.978;2022-09-03T05:42:16;14.20;99.90
25438;DHT22;13364;49.084;9.978;2022-09-03T05:44:43;14.30;99.90
25438;DHT22;13364;49.084;9.978;2022-09-03T05:47:10;14.30;99.90
25438;DHT22;13364;49.084;9.978;2022-09-03T05:49:38;14.30;99.90
25438;DHT22;13364;49.084;9.978;2022-09-03T05:52:05;14.40;99.90
25438;DHT22;13364;49.084;9.978;2022-09-03T05:54:32;14.40;99.90
25438;DHT22;13364;49.084;9.978;2022-09-03T05:56:59;14.50;99.90
25438;DHT22;13364;49.084;9.978;2022-09-03T05:59:26;14.60;99.90
25438;DHT22;13364;49.084;9.978;2022-09-03T06:01:53;14.60;99.90
25438;DHT22;13364;49.084;9.978;2022-09-03T06:04:25;14.60;99.90
25438;DHT22;13364;49.084;9.978;2022-09-03T06:06:53;14.70;99.90
25438;DHT22;13364;49.084;9.978;2022-09-03T06:09:21;14.70;99.90
25438;DHT22;13364;49.084;9.978;2022-09-03T06:11:49;14.80;99.90
25438;DHT22;13364;49.084;9.978;2022-09-03T06:14:18;14.80;99.90
25438;DHT22;13364;49.084;9.978;2022-09-03T06:16:47;14.90;99.90
25438;DHT22;13364;49.084;9.978;2022-09-03T06:19:15;14.90;99.90
25438;DHT22;13364;49.084;9.978;2022-09-03T06:21:44;15.00;99.90
25438;DHT22;13364;49.084;9.978;2022-09-03T06:24:16;15.00;99.90
25438;DHT22;13364;49.084;9.978;2022-09-03T06:26:44;15.00;99.90
25438;DHT22;13364;49.084;9.978;2022-09-03T06:29:12;15.10;99.90
25438;DHT22;13364;49.084;9.978;2022-09-03T06:31:39;15.10;99.90
25438;DHT22;13364;49.084;9.978;2022-09-03T06:34:07;15.20;99.90
25438;DHT22;13364;49.084;9.978;2022-09-03T06:36:34;15.20;99.90
25438;DHT22;13364;49.084;9.978;2022-09-03T06:39:01;15.30;99.90
25438;DHT22;13364;49.084;9.978;2022-09-03T06:41:30;15.30;99.90
25438;DHT22;13364;49.084;9.978;2022-09-03T06:44:04;15.30;99.90
25438;DHT22;13364;49.084;9.978;2022-09-03T06:46:35;15.30;99.90
25438;DHT22;13364;49.084;9.978;2022-09-03T06:49:04;15.30;99.90
25438;DHT22;13364;49.084;9.978;2022-09-03T06:51:32;15.40;99.90
25438;DHT22;13364;49.084;9.978;2022-09-03T06:54:05;15.50;99.90
25438;DHT22;13364;49.084;9.978;2022-09-03T06:56:34;15.50;99.90
25438;DHT22;13364;49.084;9.978;2022-09-03T06:59:10;15.60;99.90
25438;DHT22;13364;49.084;9.978;2022-09-03T07:01:38;15.60;99.90
25438;DHT22;13364;49.084;9.978;2022-09-03T07:04:12;15.70;99.90
25438;DHT22;13364;49.084;9.978;2022-09-03T07:06:42;15.80;99.90
25438;DHT22;13364;49.084;9.978;2022-09-03T07:09:11;15.70;99.90
25438;DHT22;13364;49.084;9.978;2022-09-03T07:11:39;15.80;99.90
25438;DHT22;13364;49.084;9.978;2022-09-03T07:14:15;15.80;99.90
25438;DHT22;13364;49.084;9.978;2022-09-03T07:16:42;15.80;99.90
25438;DHT22;13364;49.084;9.978;2022-09-03T07:19:09;15.80;99.90
25438;DHT22;13364;49.084;9.978;2022-09-03T07:21:39;15.80;99.90
25438;DHT22;13364;49.084;9.978;2022-09-03T07:24:17;15.90;99.90
25438;DHT22;13364;49.084;9.978;2022-09-03T07:26:44;15.90;99.90
25438;DHT22;13364;49.084;9.978;2022-09-03T07:29:13;16.00;99.90
25438;DHT22;13364;49.084;9.978;2022-09-03T07:31:42;16.00;99.90
25438;DHT22;13364;49.084;9.978;2022-09-03T07:34:11;16.00;99.90
25438;DHT22;13364;49.084;9.978;2022-09-03T07:36:42;16.10;99.90
25438;DHT22;13364;49.084;9.978;2022-09-03T07:39:10;16.10;99.90
25438;DHT22;13364;49.084;9.978;2022-09-03T07:41:38;16.10;99.90
25438;DHT22;13364;49.084;9.978;2022-09-03T07:44:09;16.10;99.90
25438;DHT22;13364;49.084;9.978;2022-09-03T07:46:37;16.10;99.90
25438;DHT22;13364;49.084;9.978;2022-09-03T07:49:05;16.20;99.90
25438;DHT22;13364;49.084;9.978;2022-09-03T07:51:37;16.20;99.90
25438;DHT22;13364;49.084;9.978;2022-09-03T07:54:06;16.20;99.90
25438;DHT22;13364;49.084;9.978;2022-09-03T07:56:39;16.30;99.90
25438;DHT22;13364;49.084;9.978;2022-09-03T07:59:07;16.40;99.90
25438;DHT22;13364;49.084;9.978;2022-09-03T08:01:35;16.50;99.90
25438;DHT22;13364;49.084;9.978;2022-09-03T08:04:07;16.60;99.90
25438;DHT22;13364;49.084;9.978;2022-09-03T08:06:37;16.70;99.90
25438;DHT22;13364;49.084;9.978;2022-09-03T08:09:06;16.70;99.90
25438;DHT22;13364;49.084;9.978;2022-09-03T08:11:36;16.90;99.90
25438;DHT22;13364;49.084;9.978;2022-09-03T08:14:06;17.10;99.90
25438;DHT22;13364;49.084;9.978;2022-09-03T08:16:36;17.30;99.90
25438;DHT22;13364;49.084;9.978;2022-09-03T08:19:04;17.40;99.90
25438;DHT22;13364;49.084;9.978;2022-09-03T08:21:31;17.60;99.90
25438;DHT22;13364;49.084;9.978;2022-09-03T08:23:58;17.70;99.90
25438;DHT22;13364;49.084;9.978;2022-09-03T08:26:30;17.90;99.90
25438;DHT22;13364;49.084;9.978;2022-09-03T08:28:58;18.00;99.90
25438;DHT22;13364;49.084;9.978;2022-09-03T08:31:25;18.20;99.90
25438;DHT22;13364;49.084;9.978;2022-09-03T08:33:55;18.40;99.90
25438;DHT22;13364;49.084;9.978;2022-09-03T08:36:25;18.60;99.90
25438;DHT22;13364;49.084;9.978;2022-09-03T08:38:54;18.70;99.90
25438;DHT22;13364;49.084;9.978;2022-09-03T08:44:27;19.10;99.90
25438;DHT22;13364;49.084;9.978;2022-09-03T08:47:09;19.20;99.90
25438;DHT22;13364;49.084;9.978;2022-09-03T08:50:26;19.30;99.90
25438;DHT22;13364;49.084;9.978;2022-09-03T08:52:47;19.40;99.90
25438;DHT22;13364;49.084;9.978;2022-09-03T08:58:06;19.80;99.90
25438;DHT22;13364;49.084;9.978;2022-09-03T09:07:35;20.30;99.90
25438;DHT22;13364;49.084;9.978;2022-09-03T09:13:23;20.80;99.90
25438;DHT22;13364;49.084;9.978;2022-09-03T09:16:14;21.00;99.90
25438;DHT22;13364;49.084;9.978;2022-09-03T09:19:20;21.10;99.90
25438;DHT22;13364;49.084;9.978;2022-09-03T09:21:55;21.30;99.90
25438;DHT22;13364;49.084;9.978;2022-09-03T09:24:26;21.50;99.90
25438;DHT22;13364;49.084;9.978;2022-09-03T09:26:59;21.80;99.90
25438;DHT22;13364;49.084;9.978;2022-09-03T09:29:34;22.10;99.90
25438;DHT22;13364;49.084;9.978;2022-09-03T09:32:02;22.50;99.90
25438;DHT22;13364;49.084;9.978;2022-09-03T09:34:35;22.90;99.90
25438;DHT22;13364;49.084;9.978;2022-09-03T09:37:12;23.20;99.90
25438;DHT22;13364;49.084;9.978;2022-09-03T09:39:40;23.50;99.90
25438;DHT22;13364;49.084;9.978;2022-09-03T09:42:21;23.60;99.90
25438;DHT22;13364;49.084;9.978;2022-09-03T09:49:59;23.60;99.90
25438;DHT22;13364;49.084;9.978;2022-09-03T09:52:19;23.60;99.90
25438;DHT22;13364;49.084;9.978;2022-09-03T09:54:52;23.50;99.90
25438;DHT22;13364;49.084;9.978;2022-09-03T09:57:22;23.30;99.90
25438;DHT22;13364;49.084;9.978;2022-09-03T10:00:01;23.30;99.90
25438;DHT22;13364;49.084;9.978;2022-09-03T10:07:28;23.20;99.90
25438;DHT22;13364;49.084;9.978;2022-09-03T10:10:05;23.40;99.90
25438;DHT22;13364;49.084;9.978;2022-09-03T10:12:45;23.30;99.90
25438;DHT22;13364;49.084;9.978;2022-09-03T10:15:28;23.20;99.90
25438;DHT22;13364;49.084;9.978;2022-09-03T10:23:09;22.70;99.90
25438;DHT22;13364;49.084;9.978;2022-09-03T10:28:25;22.80;99.90
25438;DHT22;13364;49.084;9.978;2022-09-03T10:33:56;23.30;99.90
25438;DHT22;13364;49.084;9.978;2022-09-03T10:36:33;23.60;99.90
25438;DHT22;13364;49.084;9.978;2022-09-03T10:41:37;23.80;99.90
25438;DHT22;13364;49.084;9.978;2022-09-03T10:48:54;24.10;99.90
25438;DHT22;13364;49.084;9.978;2022-09-03T10:51:40;24.30;99.90
25438;DHT22;13364;49.084;9.978;2022-09-03T10:57:34;24.70;99.90
25438;DHT22;13364;49.084;9.978;2022-09-03T11:00:08;25.00;99.90
25438;DHT22;13364;49.084;9.978;2022-09-03T11:12:39;25.90;99.20
25438;DHT22;13364;49.084;9.978;2022-09-03T11:18:36;25.40;98.80
25438;DHT22;13364;49.084;9.978;2022-09-03T11:20:44;25.20;99.20
25438;DHT22;13364;49.084;9.978;2022-09-03T11:23:13;25.00;99.90
25438;DHT22;13364;49.084;9.978;2022-09-03T11:25:48;25.10;99.90
25438;DHT22;13364;49.084;9.978;2022-09-03T11:31:15;25.30;98.70
25438;DHT22;13364;49.084;9.978;2022-09-03T11:33:50;25.30;98.40
25438;DHT22;13364;49.084;9.978;2022-09-03T11:36:30;25.40;98.20
25438;DHT22;13364;49.084;9.978;2022-09-03T11:38:57;25.60;99.50
25438;DHT22;13364;49.084;9.978;2022-09-03T11:45:12;26.00;97.80
25438;DHT22;13364;49.084;9.978;2022-09-03T11:47:42;26.10;97.50
25438;DHT22;13364;49.084;9.978;2022-09-03T11:53:05;26.20;95.20
25438;DHT22;13364;49.084;9.978;2022-09-03T11:55:45;25.90;95.70
25438;DHT22;13364;49.084;9.978;2022-09-03T11:58:30;25.50;96.20
25438;DHT22;13364;49.084;9.978;2022-09-03T12:01:15;25.20;97.70
25438;DHT22;13364;49.084;9.978;2022-09-03T12:03:56;25.00;98.30
25438;DHT22;13364;49.084;9.978;2022-09-03T12:06:42;24.80;98.80
25438;DHT22;13364;49.084;9.978;2022-09-03T12:15:24;24.70;99.90
25438;DHT22;13364;49.084;9.978;2022-09-03T12:20:40;24.80;99.90
25438;DHT22;13364;49.084;9.978;2022-09-03T12:23:10;24.70;99.90
25438;DHT22;13364;49.084;9.978;2022-09-03T12:25:44;24.60;99.90
25438;DHT22;13364;49.084;9.978;2022-09-03T12:28:18;24.60;99.90
25438;DHT22;13364;49.084;9.978;2022-09-03T12:30:50;24.30;99.90
25438;DHT22;13364;49.084;9.978;2022-09-03T12:33:22;24.30;99.90
25438;DHT22;13364;49.084;9.978;2022-09-03T12:35:56;24.20;99.90
25438;DHT22;13364;49.084;9.978;2022-09-03T12:38:26;24.20;99.90
25438;DHT22;13364;49.084;9.978;2022-09-03T12:40:55;24.10;99.90
25438;DHT22;13364;49.084;9.978;2022-09-03T12:43:51;24.00;99.90
25438;DHT22;13364;49.084;9.978;2022-09-03T12:46:23;23.90;99.90
25438;DHT22;13364;49.084;9.978;2022-09-03T12:49:04;23.90;99.90
25438;DHT22;13364;49.084;9.978;2022-09-03T12:52:06;23.90;99.90
25438;DHT22;13364;49.084;9.978;2022-09-03T12:57:31;23.70;99.90
25438;DHT22;13364;49.084;9.978;2022-09-03T13:00:04;23.60;99.90
25438;DHT22;13364;49.084;9.978;2022-09-03T13:02:55;23.50;99.90
25438;DHT22;13364;49.084;9.978;2022-09-03T13:05:35;23.30;99.90
25438;DHT22;13364;49.084;9.978;2022-09-03T13:08:04;23.20;99.90
25438;DHT22;13364;49.084;9.978;2022-09-03T13:10:37;23.10;99.90
25438;DHT22;13364;49.084;9.978;2022-09-03T13:13:23;23.10;99.90
25438;DHT22;13364;49.084;9.978;2022-09-03T13:19:00;23.00;99.90
25438;DHT22;13364;49.084;9.978;2022-09-03T13:24:45;22.90;99.90
25438;DHT22;13364;49.084;9.978;2022-09-03T13:35:35;22.50;99.90
25438;DHT22;13364;49.084;9.978;2022-09-03T13:38:32;22.50;99.90
25438;DHT22;13364;49.084;9.978;2022-09-03T13:47:04;22.40;99.90
25438;DHT22;13364;49.084;9.978;2022-09-03T13:49:40;22.30;99.90
25438;DHT22;13364;49.084;9.978;2022-09-03T13:58:56;22.30;99.90
25438;DHT22;13364;49.084;9.978;2022-09-03T14:06:12;22.20;99.90
25438;DHT22;13364;49.084;9.978;2022-09-03T14:09:02;22.20;99.90
25438;DHT22;13364;49.084;9.978;2022-09-03T14:14:11;22.20;99.90
25438;DHT22;13364;49.084;9.978;2022-09-03T14:16:53;22.10;99.90
25438;DHT22;13364;49.084;9.978;2022-09-03T14:20:07;21.90;99.90
25438;DHT22;13364;49.084;9.978;2022-09-03T14:23:01;21.60;99.90
25438;DHT22;13364;49.084;9.978;2022-09-03T14:25:29;21.30;99.90
25438;DHT22;13364;49.084;9.978;2022-09-03T14:30:48;20.70;99.90
25438;DHT22;13364;49.084;9.978;2022-09-03T14:36:26;20.20;99.90
25438;DHT22;13364;49.084;9.978;2022-09-03T14:42:28;19.70;99.90
25438;DHT22;13364;49.084;9.978;2022-09-03T14:58:48;20.20;99.90
25438;DHT22;13364;49.084;9.978;2022-09-03T15:01:27;20.40;99.90
25438;DHT22;13364;49.084;9.978;2022-09-03T15:07:29;20.50;99.90
25438;DHT22;13364;49.084;9.978;2022-09-03T15:10:19;20.70;99.90
25438;DHT22;13364;49.084;9.978;2022-09-03T15:13:07;20.80;99.90
25438;DHT22;13364;49.084;9.978;2022-09-03T15:16:03;20.80;99.90
25438;DHT22;13364;49.084;9.978;2022-09-03T15:30:42;20.30;99.90
25438;DHT22;13364;49.084;9.978;2022-09-03T15:33:32;20.20;99.90
25438;DHT22;13364;49.084;9.978;2022-09-03T15:36:23;20.00;99.90
25438;DHT22;13364;49.084;9.978;2022-09-03T15:39:02;20.00;99.90
25438;DHT22;13364;49.084;9.978;2022-09-03T15:44:50;19.90;99.90
25438;DHT22;13364;49.084;9.978;2022-09-03T15:47:50;19.90;99.90
25438;DHT22;13364;49.084;9.978;2022-09-03T15:50:47;19.90;99.90
25438;DHT22;13364;49.084;9.978;2022-09-03T15:56:19;20.00;99.90
25438;DHT22;13364;49.084;9.978;2022-09-03T16:04:51;20.10;99.90
25438;DHT22;13364;49.084;9.978;2022-09-03T16:10:13;20.00;99.90
25438;DHT22;13364;49.084;9.978;2022-09-03T16:16:12;19.90;99.90
25438;DHT22;13364;49.084;9.978;2022-09-03T16:18:45;19.90;99.90
25438;DHT22;13364;49.084;9.978;2022-09-03T16:23:59;19.80;99.90
25438;DHT22;13364;49.084;9.978;2022-09-03T16:26:33;19.80;99.90
25438;DHT22;13364;49.084;9.978;2022-09-03T16:29:10;19.80;99.90
25438;DHT22;13364;49.084;9.978;2022-09-03T16:59:04;19.70;99.90
25438;DHT22;13364;49.084;9.978;2022-09-03T17:01:40;19.70;99.90
25438;DHT22;13364;49.084;9.978;2022-09-03T17:04:34;19.60;99.90
25438;DHT22;13364;49.084;9.978;2022-09-03T17:18:25;19.20;99.90
25438;DHT22;13364;49.084;9.978;2022-09-03T17:28:17;19.10;99.90
25438;DHT22;13364;49.084;9.978;2022-09-03T17:31:04;19.10;99.90
25438;DHT22;13364;49.084;9.978;2022-09-03T17:33:56;19.00;99.90
25438;DHT22;13364;49.084;9.978;2022-09-03T17:36:26;19.00;99.90
25438;DHT22;13364;49.084;9.978;2022-09-03T17:39:35;18.90;99.90
25438;DHT22;13364;49.084;9.978;2022-09-03T17:50:04;18.70;99.90
25438;DHT22;13364;49.084;9.978;2022-09-03T17:53:00;18.60;99.90
25438;DHT22;13364;49.084;9.978;2022-09-03T17:58:42;18.50;99.90
25438;DHT22;13364;49.084;9.978;2022-09-03T18:01:23;18.30;99.90
25438;DHT22;13364;49.084;9.978;2022-09-03T18:04:10;18.30;99.90
25438;DHT22;13364;49.084;9.978;2022-09-03T18:09:27;18.10;99.90
25438;DHT22;13364;49.084;9.978;2022-09-03T18:18:07;17.70;99.90
25438;DHT22;13364;49.084;9.978;2022-09-03T18:20:48;17.60;99.90
25438;DHT22;13364;49.084;9.978;2022-09-03T18:27:48;17.40;99.90
25438;DHT22;13364;49.084;9.978;2022-09-03T18:30:35;17.30;99.90
25438;DHT22;13364;49.084;9.978;2022-09-03T18:33:25;17.20;99.90
25438;DHT22;13364;49.084;9.978;2022-09-03T18:36:11;17.10;99.90
25438;DHT22;13364;49.084;9.978;2022-09-03T18:39:07;17.10;99.90
25438;DHT22;13364;49.084;9.978;2022-09-03T18:45:45;16.90;99.90
25438;DHT22;13364;49.084;9.978;2022-09-03T18:49:10;16.80;99.90
25438;DHT22;13364;49.084;9.978;2022-09-03T18:52:20;16.70;99.90
25438;DHT22;13364;49.084;9.978;2022-09-03T19:01:08;16.60;99.90
25438;DHT22;13364;49.084;9.978;2022-09-03T19:10:56;16.40;99.90
25438;DHT22;13364;49.084;9.978;2022-09-03T19:13:45;16.30;99.90
25438;DHT22;13364;49.084;9.978;2022-09-03T19:16:55;16.30;99.90
25438;DHT22;13364;49.084;9.978;2022-09-03T19:20:17;16.30;99.90
25438;DHT22;13364;49.084;9.978;2022-09-03T19:23:04;16.20;99.90
25438;DHT22;13364;49.084;9.978;2022-09-03T19:25:51;16.10;99.90
25438;DHT22;13364;49.084;9.978;2022-09-03T19:28:41;16.00;99.90
25438;DHT22;13364;49.084;9.978;2022-09-03T19:31:48;16.00;99.90
25438;DHT22;13364;49.084;9.978;2022-09-03T19:35:02;16.00;99.90
25438;DHT22;13364;49.084;9.978;2022-09-03T19:41:26;16.00;99.90
25438;DHT22;13364;49.084;9.978;2022-09-03T19:44:41;16.00;99.90
25438;DHT22;13364;49.084;9.978;2022-09-03T19:48:13;16.00;99.90
25438;DHT22;13364;49.084;9.978;2022-09-03T19:51:10;16.00;99.90
25438;DHT22;13364;49.084;9.978;2022-09-03T19:54:18;16.00;99.90
25438;DHT22;13364;49.084;9.978;2022-09-03T19:57:05;15.90;99.90
25438;DHT22;13364;49.084;9.978;2022-09-03T19:59:51;15.90;99.90
25438;DHT22;13364;49.084;9.978;2022-09-03T20:02:40;16.90;99.90
25438;DHT22;13364;49.084;9.978;2022-09-03T20:05:26;15.80;99.90
25438;DHT22;13364;49.084;9.978;2022-09-03T20:08:15;15.70;99.90
25438;DHT22;13364;49.084;9.978;2022-09-03T20:11:03;15.70;99.90
25438;DHT22;13364;49.084;9.978;2022-09-03T20:13:31;15.60;99.90
25438;DHT22;13364;49.084;9.978;2022-09-03T20:19:30;15.50;99.90
25438;DHT22;13364;49.084;9.978;2022-09-03T20:30:19;15.50;99.90
25438;DHT22;13364;49.084;9.978;2022-09-03T20:33:05;15.50;99.90
25438;DHT22;13364;49.084;9.978;2022-09-03T20:35:58;15.50;99.90
25438;DHT22;13364;49.084;9.978;2022-09-03T20:41:16;15.60;99.90
25438;DHT22;13364;49.084;9.978;2022-09-03T20:52:14;15.60;99.90
25438;DHT22;13364;49.084;9.978;2022-09-03T20:55:30;15.50;99.90
25438;DHT22;13364;49.084;9.978;2022-09-03T21:00:50;15.50;99.90
25438;DHT22;13364;49.084;9.978;2022-09-03T21:03:46;15.50;99.90
25438;DHT22;13364;49.084;9.978;2022-09-03T21:06:37;15.50;99.90
25438;DHT22;13364;49.084;9.978;2022-09-03T21:09:33;15.40;99.90
25438;DHT22;13364;49.084;9.978;2022-09-03T21:20:39;15.10;99.90
25438;DHT22;13364;49.084;9.978;2022-09-03T21:23:26;15.10;99.90
25438;DHT22;13364;49.084;9.978;2022-09-03T21:28:38;15.00;99.90
25438;DHT22;13364;49.084;9.978;2022-09-03T21:31:23;14.90;99.90
25438;DHT22;13364;49.084;9.978;2022-09-03T21:33:57;14.90;99.90
25438;DHT22;13364;49.084;9.978;2022-09-03T21:36:29;14.90;99.90
25438;DHT22;13364;49.084;9.978;2022-09-03T21:41:40;14.90;99.90
25438;DHT22;13364;49.084;9.978;2022-09-03T21:47:04;14.90;99.90
25438;DHT22;13364;49.084;9.978;2022-09-03T21:49:52;14.90;99.90
25438;DHT22;13364;49.084;9.978;2022-09-03T21:52:39;15.00;99.90
25438;DHT22;13364;49.084;9.978;2022-09-03T21:55:20;15.00;99.90
25438;DHT22;13364;49.084;9.978;2022-09-03T22:04:03;15.00;99.90
25438;DHT22;13364;49.084;9.978;2022-09-03T22:06:55;15.00;99.90
25438;DHT22;13364;49.084;9.978;2022-09-03T22:10:20;14.90;99.90
25438;DHT22;13364;49.084;9.978;2022-09-03T22:15:46;14.90;99.90
25438;DHT22;13364;49.084;9.978;2022-09-03T22:18:27;14.90;99.90
25438;DHT22;13364;49.084;9.978;2022-09-03T22:26:50;14.90;99.90
25438;DHT22;13364;49.084;9.978;2022-09-03T22:32:30;14.80;99.90
25438;DHT22;13364;49.084;9.978;2022-09-03T22:35:39;14.70;99.90
25438;DHT22;13364;49.084;9.978;2022-09-03T22:45:15;14.50;99.90
25438;DHT22;13364;49.084;9.978;2022-09-03T22:48:05;14.40;99.90
25438;DHT22;13364;49.084;9.978;2022-09-03T22:50:57;14.40;99.90
25438;DHT22;13364;49.084;9.978;2022-09-03T22:56:12;14.30;99.90
25438;DHT22;13364;49.084;9.978;2022-09-03T22:59:00;14.30;99.90
25438;DHT22;13364;49.084;9.978;2022-09-03T23:01:38;14.30;99.90
25438;DHT22;13364;49.084;9.978;2022-09-03T23:04:21;14.30;99.90
25438;DHT22;13364;49.084;9.978;2022-09-03T23:06:58;14.30;99.90
25438;DHT22;13364;49.084;9.978;2022-09-03T23:09:28;14.30;99.90
25438;DHT22;13364;49.084;9.978;2022-09-03T23:12:02;14.30;99.90
25438;DHT22;13364;49.084;9.978;2022-09-03T23:14:45;14.20;99.90
25438;DHT22;13364;49.084;9.978;2022-09-03T23:17:28;14.20;99.90
25438;DHT22;13364;49.084;9.978;2022-09-03T23:20:23;14.20;99.90